createdAt,value
2019-04-26T00:02:56.488Z,53.68
2019-04-26T00:05:44.067Z,53.94
2019-04-26T00:08:31.939Z,53.78
2019-04-26T00:11:34.913Z,54.07
2019-04-26T00:14:40.330Z,54.03
2019-04-26T00:17:34.924Z,53.77
2019-04-26T00:20:22.607Z,54.21
2019-04-26T00:23:10.755Z,54.28
2019-04-26T00:25:58.988Z,54.48
2019-04-26T00:28:46.514Z,53.70
2019-04-26T00:31:34.207Z,54.65
2019-04-26T00:34:21.983Z,54.47
2019-04-26T00:37:09.804Z,54.34
2019-04-26T00:40:02.700Z,54.53
2019-04-26T00:42:50.101Z,53.88
2019-04-26T00:45:38.905Z,54.01
2019-04-26T00:48:26.449Z,53.84
2019-04-26T00:51:15.228Z,53.49
2019-04-26T00:54:03.081Z,53.42
2019-04-26T00:56:50.941Z,52.94
2019-04-26T00:59:38.589Z,53.28
2019-04-26T01:02:48.748Z,53.28
2019-04-26T01:05:37.870Z,52.96
2019-04-26T01:08:25.747Z,53.29
2019-04-26T01:11:13.335Z,52.81
2019-04-26T01:14:01.117Z,53.44
2019-04-26T01:16:48.754Z,53.39
2019-04-26T01:19:38.227Z,54.65
2019-04-26T01:22:29.509Z,56.28
2019-04-26T01:25:53.666Z,56.79
2019-04-26T01:28:46.584Z,57.66
2019-04-26T01:31:38.530Z,58.34
2019-04-26T01:34:26.226Z,59.19
2019-04-26T01:37:13.868Z,58.06
2019-04-26T01:40:06.509Z,57.43
2019-04-26T01:43:20.206Z,57.33
2019-04-26T01:46:15.912Z,57.69
2019-04-26T01:49:06.753Z,57.62
2019-04-26T01:52:00.338Z,57.71
2019-04-26T01:54:48.045Z,58.20
2019-04-26T01:57:35.792Z,57.70
2019-04-26T02:00:41.537Z,59.00
2019-04-26T02:03:29.946Z,58.48
2019-04-26T02:06:25.217Z,59.54
2019-04-26T02:09:08.748Z,58.47
2019-04-26T02:11:56.225Z,59.24
2019-04-26T02:14:44.254Z,59.73
2019-04-26T02:17:31.607Z,58.55
2019-04-26T02:20:59.202Z,60.13
2019-04-26T02:24:12.063Z,59.35
2019-04-26T02:27:00.679Z,58.35
2019-04-26T02:29:48.561Z,59.29
2019-04-26T02:32:37.046Z,59.76
2019-04-26T02:35:26.549Z,58.38
2019-04-26T02:38:13.643Z,58.24
2019-04-26T02:41:01.153Z,58.34
2019-04-26T02:43:50.429Z,59.16
2019-04-26T02:46:46.040Z,58.82
2019-04-26T02:49:39.498Z,58.63
2019-04-26T02:52:52.883Z,58.81
2019-04-26T02:56:11.447Z,58.82
2019-04-26T02:59:23.145Z,58.28
2019-04-26T03:02:21.935Z,58.24
2019-04-26T03:05:10.004Z,59.31
2019-04-26T03:08:07.298Z,59.33
2019-04-26T03:11:17.984Z,59.55
2019-04-26T03:14:23.836Z,59.46
2019-04-26T03:17:24.637Z,59.14
2019-04-26T03:20:14.879Z,59.91
2019-04-26T03:23:45.811Z,60.47
2019-04-26T03:26:35.646Z,60.21
2019-04-26T03:29:34.818Z,60.54
2019-04-26T03:33:06.405Z,62.07
2019-04-26T03:36:18.699Z,62.22
2019-04-26T03:39:18.460Z,62.49
2019-04-26T03:42:44.024Z,61.68
2019-04-26T03:46:02.135Z,61.14
2019-04-26T03:49:35.608Z,62.08
2019-04-26T03:53:10.195Z,63.51
2019-04-26T03:56:56.031Z,64.03
2019-04-26T04:00:39.321Z,63.03
2019-04-26T04:03:55.125Z,63.70
2019-04-26T04:07:02.232Z,64.22
2019-04-26T04:09:32.996Z,64.79
2019-04-26T04:12:47.673Z,64.39
2019-04-26T04:15:42.599Z,64.72
2019-04-26T04:18:32.065Z,65.21
2019-04-26T04:21:38.617Z,65.17
2019-04-26T04:24:31.062Z,64.55
2019-04-26T04:27:34.701Z,64.07
2019-04-26T04:30:40.611Z,65.19
2019-04-26T04:33:50.103Z,65.09
2019-04-26T04:36:50.592Z,64.26
2019-04-26T04:40:09.764Z,64.75
2019-04-26T04:43:27.090Z,63.95
2019-04-26T04:46:35.551Z,64.01
2019-04-26T04:49:38.951Z,63.75
2019-04-26T04:52:53.551Z,64.18
2019-04-26T04:56:03.657Z,62.94
2019-04-26T04:58:53.877Z,63.28
2019-04-26T05:02:21.102Z,63.99
2019-04-26T05:05:30.039Z,63.93
2019-04-26T05:08:58.649Z,64.20
2019-04-26T05:12:09.598Z,63.77
2019-04-26T05:15:05.233Z,62.68
2019-04-26T05:18:05.327Z,64.40
2019-04-26T05:21:27.893Z,64.69
2019-04-26T05:24:36.952Z,64.60
2019-04-26T05:27:48.181Z,65.25
2019-04-26T05:31:12.826Z,65.40
2019-04-26T05:34:21.606Z,65.27
2019-04-26T05:37:47.837Z,63.67
2019-04-26T05:41:01.234Z,63.90
2019-04-26T05:44:19.851Z,64.63
2019-04-26T05:47:37.625Z,63.31
2019-04-26T05:51:11.956Z,64.02
2019-04-26T05:54:42.505Z,63.77
2019-04-26T05:57:52.727Z,64.07
2019-04-26T06:01:14.009Z,64.25
2019-04-26T06:04:31.222Z,63.59
2019-04-26T06:07:38.741Z,63.89
2019-04-26T06:10:36.704Z,63.88
2019-04-26T06:14:12.393Z,62.53
2019-04-26T06:17:49.103Z,62.09
2019-04-26T06:20:47.337Z,62.94
2019-04-26T06:23:55.885Z,63.01
2019-04-26T06:27:22.225Z,63.13
2019-04-26T06:30:24.871Z,62.86
2019-04-26T06:33:49.340Z,61.55
2019-04-26T06:36:54.504Z,63.13
2019-04-26T06:39:54.966Z,63.54
2019-04-26T06:43:12.883Z,61.86
2019-04-26T06:46:51.775Z,62.70
2019-04-26T06:50:19.527Z,63.25
2019-04-26T06:53:34.662Z,63.93
2019-04-26T06:57:09.626Z,62.34
2019-04-26T07:00:27.704Z,63.53
2019-04-26T07:03:51.532Z,62.12
2019-04-26T07:07:07.493Z,60.67
2019-04-26T07:10:09.080Z,61.55
2019-04-26T07:13:28.093Z,61.61
2019-04-26T07:16:32.176Z,60.96
2019-04-26T07:19:55.096Z,62.32
2019-04-26T07:23:32.291Z,62.60
2019-04-26T07:26:53.919Z,63.13
2019-04-26T07:30:07.303Z,63.59
2019-04-26T07:33:38.515Z,63.25
2019-04-26T07:37:15.331Z,62.98
2019-04-26T07:40:48.631Z,64.18
2019-04-26T07:44:09.749Z,64.76
2019-04-26T07:47:06.403Z,63.41
2019-04-26T07:50:44.248Z,63.24
2019-04-26T07:54:07.412Z,63.92
2019-04-26T07:57:26.799Z,63.39
2019-04-26T08:00:19.571Z,63.52
2019-04-26T08:03:18.082Z,62.66
2019-04-26T08:06:15.520Z,62.77
2019-04-26T08:09:26.035Z,64.21
2019-04-26T08:12:06.230Z,64.38
2019-04-26T08:15:14.367Z,63.56
2019-04-26T08:18:11.710Z,63.21
2019-04-26T08:21:09.955Z,62.18
2019-04-26T08:24:06.358Z,63.59
2019-04-26T08:27:23.085Z,61.59
2019-04-26T08:30:15.749Z,62.76
2019-04-26T08:33:07.535Z,62.08
2019-04-26T08:35:55.339Z,62.17
2019-04-26T08:38:44.023Z,61.76
2019-04-26T08:41:35.190Z,61.26
2019-04-26T08:44:44.524Z,61.65
2019-04-26T08:47:53.508Z,61.62
2019-04-26T08:50:45.868Z,60.81
2019-04-26T08:53:35.150Z,60.68
2019-04-26T08:56:27.267Z,60.32
2019-04-26T08:59:22.177Z,61.34
2019-04-26T09:02:25.817Z,61.92
2019-04-26T09:05:35.718Z,63.27
2019-04-26T09:08:28.578Z,63.08
2019-04-26T09:11:25.846Z,61.50
2019-04-26T09:14:08.795Z,63.27
2019-04-26T09:16:56.427Z,62.96
2019-04-26T09:19:43.848Z,62.43
2019-04-26T09:22:49.597Z,63.27
2019-04-26T09:25:43.637Z,62.93
2019-04-26T09:28:52.980Z,61.78
2019-04-26T09:31:45.335Z,62.52
2019-04-26T09:34:32.993Z,62.26
2019-04-26T09:37:20.392Z,62.17
2019-04-26T09:40:10.640Z,61.58
2019-04-26T09:43:15.171Z,61.27
2019-04-26T09:46:20.114Z,62.15
2019-04-26T09:49:20.029Z,61.91
2019-04-26T09:52:12.266Z,62.09
2019-04-26T09:54:59.876Z,61.79
2019-04-26T09:57:47.389Z,61.72
2019-04-26T10:00:35.170Z,62.57
2019-04-26T10:03:23.145Z,62.67
2019-04-26T10:06:10.823Z,60.99
2019-04-26T10:08:58.491Z,62.83
2019-04-26T10:11:51.144Z,62.17
2019-04-26T10:15:05.739Z,61.90
2019-04-26T10:17:53.476Z,61.94
2019-04-26T10:20:40.883Z,61.70
2019-04-26T10:23:28.362Z,61.07
2019-04-26T10:26:16.287Z,61.78
2019-04-26T10:29:03.867Z,59.55
2019-04-26T10:31:51.709Z,61.02
2019-04-26T10:34:42.663Z,62.03
2019-04-26T10:37:39.297Z,60.64
2019-04-26T10:40:19.372Z,62.10
2019-04-26T10:43:08.042Z,61.38
2019-04-26T10:45:55.622Z,61.40
2019-04-26T10:48:45.436Z,62.22
2019-04-26T10:51:41.885Z,61.38
2019-04-26T10:54:32.165Z,61.49
2019-04-26T10:57:27.573Z,61.01
2019-04-26T11:00:23.548Z,60.47
2019-04-26T11:03:11.076Z,60.73
2019-04-26T11:05:58.652Z,61.56
2019-04-26T11:08:46.305Z,60.54
2019-04-26T11:11:40.153Z,61.14
2019-04-26T11:14:27.643Z,61.43
2019-04-26T11:17:16.464Z,60.99
2019-04-26T11:20:06.239Z,60.73
2019-04-26T11:22:54.361Z,61.29
2019-04-26T11:25:42.108Z,61.31
2019-04-26T11:28:29.749Z,60.70
2019-04-26T11:31:17.555Z,60.90
2019-04-26T11:34:05.818Z,61.25
2019-04-26T11:36:54.574Z,60.55
2019-04-26T11:39:42.214Z,60.46
2019-04-26T11:42:29.421Z,61.92
2019-04-26T11:45:17.461Z,60.69
2019-04-26T11:48:05.685Z,61.26
2019-04-26T11:50:53.725Z,60.49
2019-04-26T11:53:44.763Z,61.55
2019-04-26T11:56:33.993Z,60.91
2019-04-26T11:59:20.164Z,61.69
2019-04-26T12:02:08.354Z,61.09
2019-04-26T12:05:13.098Z,61.63
2019-04-26T12:08:04.838Z,60.96
2019-04-26T12:10:52.679Z,60.20
2019-04-26T12:13:40.001Z,61.51
2019-04-26T12:16:27.356Z,61.26
2019-04-26T12:19:18.251Z,59.44
2019-04-26T12:22:08.137Z,61.07
2019-04-26T12:24:53.543Z,59.20
2019-04-26T12:27:41.204Z,60.12
2019-04-26T12:30:28.899Z,59.95
2019-04-26T12:33:17.810Z,60.33
2019-04-26T12:36:09.519Z,59.57
2019-04-26T12:38:58.243Z,59.36
2019-04-26T12:41:45.075Z,58.92
2019-04-26T12:44:41.219Z,60.02
2019-04-26T12:47:38.703Z,58.66
2019-04-26T12:50:24.921Z,59.09
2019-04-26T12:53:12.674Z,59.56
2019-04-26T12:56:00.341Z,58.95
2019-04-26T12:58:49.994Z,58.75
2019-04-26T13:01:37.353Z,58.42
2019-04-26T13:04:35.545Z,56.73
2019-04-26T13:07:24.065Z,57.31
2019-04-26T13:10:27.175Z,57.29
2019-04-26T13:13:39.743Z,56.66
2019-04-26T13:16:45.109Z,55.75
2019-04-26T13:19:32.757Z,54.45
2019-04-26T13:22:21.315Z,54.08
2019-04-26T13:25:15.484Z,54.24
2019-04-26T13:27:57.798Z,53.88
2019-04-26T13:30:45.512Z,53.75
2019-04-26T13:33:33.319Z,53.82
2019-04-26T13:36:20.724Z,54.07
2019-04-26T13:39:13.517Z,55.24
2019-04-26T13:42:05.992Z,52.18
2019-04-26T13:44:54.975Z,52.45
2019-04-26T13:48:10.457Z,54.28
2019-04-26T13:51:05.674Z,52.91
2019-04-26T13:53:54.343Z,53.70
2019-04-26T13:56:42.220Z,53.71
2019-04-26T13:59:31.654Z,52.86
2019-04-26T14:02:19.180Z,52.85
2019-04-26T14:05:07.022Z,52.80
2019-04-26T14:07:54.902Z,52.74
2019-04-26T14:10:45.580Z,53.02
2019-04-26T14:13:31.277Z,52.46
2019-04-26T14:16:21.228Z,52.46
2019-04-26T14:19:14.742Z,52.71
2019-04-26T14:21:57.543Z,51.44
2019-04-26T14:24:57.020Z,51.85
2019-04-26T14:27:50.057Z,51.79
2019-04-26T14:30:41.446Z,52.24
2019-04-26T14:33:30.401Z,52.34
2019-04-26T14:36:17.905Z,52.33
2019-04-26T14:39:10.745Z,50.30
2019-04-26T14:41:57.177Z,52.16
2019-04-26T14:44:49.700Z,51.67
2019-04-26T14:47:46.791Z,51.06
2019-04-26T14:50:23.970Z,52.10
2019-04-26T14:53:11.650Z,52.31
2019-04-26T14:55:59.402Z,52.14
2019-04-26T14:58:47.019Z,53.38
2019-04-26T15:01:49.968Z,54.04
2019-04-26T15:04:53.279Z,54.74
2019-04-26T15:07:49.463Z,54.46
2019-04-26T15:10:44.289Z,54.71
2019-04-26T15:13:25.490Z,53.76
2019-04-26T15:16:14.294Z,54.09
2019-04-26T15:19:02.050Z,54.00
2019-04-26T15:21:49.851Z,54.75
2019-04-26T15:24:38.624Z,53.69
2019-04-26T15:27:26.233Z,53.28
2019-04-26T15:30:14.068Z,54.84
2019-04-26T15:33:03.161Z,54.29
2019-04-26T15:35:52.144Z,53.20
2019-04-26T15:38:44.821Z,53.38
2019-04-26T15:41:47.008Z,53.32
2019-04-26T15:45:01.906Z,52.41
2019-04-26T15:48:07.282Z,52.89
2019-04-26T15:50:54.797Z,52.89
2019-04-26T15:53:43.498Z,52.59
2019-04-26T15:56:32.429Z,52.59
2019-04-26T15:59:25.351Z,53.67
2019-04-26T16:02:12.878Z,51.84
2019-04-26T16:05:02.219Z,53.45
2019-04-26T16:07:49.952Z,52.36
2019-04-26T16:10:38.510Z,52.10
2019-04-26T16:13:26.192Z,52.01
2019-04-26T16:16:16.464Z,51.71
2019-04-26T16:19:03.382Z,52.75
2019-04-26T16:21:52.789Z,53.25
2019-04-26T16:24:39.843Z,52.89
2019-04-26T16:27:32.346Z,52.56
2019-04-26T16:30:28.432Z,51.78
2019-04-26T16:33:19.093Z,52.13
2019-04-26T16:36:06.463Z,52.35
2019-04-26T16:38:56.636Z,52.32
2019-04-26T16:41:43.346Z,52.82
2019-04-26T16:44:31.815Z,52.21
2019-04-26T16:47:20.066Z,53.51
2019-04-26T16:50:08.349Z,53.03
2019-04-26T16:52:55.804Z,52.87
2019-04-26T16:55:52.164Z,53.21
2019-04-26T16:58:38.285Z,53.44
2019-04-26T17:01:23.465Z,53.55
2019-04-26T17:04:12.327Z,53.78
2019-04-26T17:07:04.290Z,53.82
2019-04-26T17:09:57.320Z,54.58
2019-04-26T17:12:39.085Z,54.36
2019-04-26T17:15:26.578Z,55.01
2019-04-26T17:18:14.048Z,55.75
2019-04-26T17:21:02.586Z,55.60
2019-04-26T17:24:00.792Z,56.42
2019-04-26T17:26:49.858Z,56.52
2019-04-26T17:29:37.295Z,56.62
2019-04-26T17:32:24.744Z,56.60
2019-04-26T17:35:12.282Z,56.88
2019-04-26T17:38:02.067Z,57.18
2019-04-26T17:40:50.497Z,57.99
2019-04-26T17:43:42.310Z,58.02
2019-04-26T17:46:27.268Z,57.31
2019-04-26T17:49:15.007Z,57.65
2019-04-26T17:52:02.846Z,58.90
2019-04-26T17:54:52.067Z,58.32
2019-04-26T17:57:42.359Z,58.90
2019-04-26T18:00:44.644Z,57.93
2019-04-26T18:03:18.348Z,58.06
2019-04-26T18:06:09.494Z,57.88
2019-04-26T18:08:55.246Z,58.11
2019-04-26T18:11:43.443Z,57.76
2019-04-26T18:14:32.113Z,57.92
2019-04-26T18:17:41.783Z,58.44
2019-04-26T18:20:48.191Z,58.70
2019-04-26T18:23:35.486Z,59.49
2019-04-26T18:26:24.446Z,60.20
2019-04-26T18:29:13.121Z,60.41
2019-04-26T18:32:03.659Z,60.77
2019-04-26T18:34:50.150Z,61.54
2019-04-26T18:37:39.484Z,61.42
2019-04-26T18:40:27.014Z,61.44
2019-04-26T18:43:18.895Z,62.93
2019-04-26T18:46:09.013Z,62.89
2019-04-26T18:48:57.092Z,63.08
2019-04-26T18:51:48.445Z,63.28
2019-04-26T18:54:57.144Z,63.73
2019-04-26T18:57:47.294Z,64.40
2019-04-26T19:00:37.306Z,64.20
2019-04-26T19:03:29.986Z,63.93
2019-04-26T19:06:26.818Z,64.17
2019-04-26T19:09:05.909Z,64.35
2019-04-26T19:11:56.005Z,64.46
2019-04-26T19:15:04.454Z,64.23
2019-04-26T19:17:56.384Z,64.48
2019-04-26T19:20:49.548Z,64.62
2019-04-26T19:23:37.358Z,65.15
2019-04-26T19:26:33.032Z,64.99
2019-04-26T19:29:18.076Z,65.05
2019-04-26T19:32:04.624Z,65.47
2019-04-26T19:34:52.562Z,65.60
2019-04-26T19:37:39.876Z,65.00
2019-04-26T19:40:27.675Z,65.48
2019-04-26T19:43:27.733Z,65.60
2019-04-26T19:46:25.762Z,66.07
2019-04-26T19:49:41.580Z,66.77
2019-04-26T19:52:39.580Z,66.64
2019-04-26T19:55:47.378Z,66.40
2019-04-26T19:58:36.007Z,67.19
2019-04-26T20:01:24.993Z,67.23
2019-04-26T20:04:13.585Z,66.88
2019-04-26T20:07:01.486Z,67.28
2019-04-26T20:09:48.769Z,67.62
2019-04-26T20:12:38.119Z,67.61
2019-04-26T20:15:28.688Z,67.66
2019-04-26T20:18:17.464Z,68.23
2019-04-26T20:21:06.518Z,68.52
2019-04-26T20:23:54.536Z,68.18
2019-04-26T20:26:44.714Z,68.24
2019-04-26T20:29:32.303Z,67.89
2019-04-26T20:32:42.018Z,68.45
2019-04-26T20:35:31.865Z,67.94
2019-04-26T20:38:19.741Z,67.62
2019-04-26T20:41:07.247Z,68.08
2019-04-26T20:44:04.905Z,68.40
2019-04-26T20:46:44.333Z,68.44
2019-04-26T20:49:32.333Z,68.75
2019-04-26T20:52:24.696Z,68.87
2019-04-26T20:55:09.853Z,68.77
2019-04-26T20:57:59.877Z,68.89
2019-04-26T21:00:54.195Z,68.64
2019-04-26T21:03:41.989Z,68.45
2019-04-26T21:06:29.283Z,68.04
2019-04-26T21:09:16.174Z,68.11
2019-04-26T21:12:07.384Z,68.21
2019-04-26T21:14:53.606Z,68.49
2019-04-26T21:17:41.632Z,68.50
2019-04-26T21:20:34.522Z,68.49
2019-04-26T21:23:18.672Z,68.18
2019-04-26T21:26:28.457Z,68.12
2019-04-26T21:29:30.597Z,67.77
2019-04-26T21:32:24.562Z,67.72
2019-04-26T21:35:14.463Z,67.69
2019-04-26T21:38:06.240Z,67.80
2019-04-26T21:41:04.361Z,67.82
2019-04-26T21:43:46.797Z,68.00
2019-04-26T21:46:34.538Z,68.01
2019-04-26T21:49:24.327Z,68.19
2019-04-26T21:52:13.665Z,68.24
2019-04-26T21:55:01.454Z,68.07
2019-04-26T21:57:48.601Z,68.00
2019-04-26T22:00:55.256Z,67.93
2019-04-26T22:03:47.521Z,67.57
2019-04-26T22:06:33.475Z,67.67
2019-04-26T22:09:28.489Z,67.54
2019-04-26T22:12:17.118Z,67.06
2019-04-26T22:15:37.601Z,67.10
2019-04-26T22:18:29.957Z,66.75
2019-04-26T22:21:28.873Z,66.88
2019-04-26T22:24:18.884Z,66.92
2019-04-26T22:27:06.796Z,66.87
2019-04-26T22:29:55.083Z,66.91
2019-04-26T22:32:42.724Z,66.80
2019-04-26T22:35:30.675Z,66.71
2019-04-26T22:38:23.748Z,66.39
2019-04-26T22:41:07.023Z,66.74
2019-04-26T22:44:08.778Z,65.98
2019-04-26T22:47:05.873Z,65.82
2019-04-26T22:49:53.349Z,66.90
2019-04-26T22:52:46.490Z,67.81
2019-04-26T22:55:30.321Z,67.31
2019-04-26T22:58:20.494Z,66.93
2019-04-26T23:01:07.739Z,66.53
2019-04-26T23:03:55.801Z,65.12
2019-04-26T23:06:46.865Z,66.05
2019-04-26T23:09:33.416Z,65.97
2019-04-26T23:12:39.778Z,66.48
2019-04-26T23:15:44.475Z,66.65
2019-04-26T23:18:50.200Z,66.82
2019-04-26T23:21:44.277Z,67.15
2019-04-26T23:24:29.486Z,66.83
2019-04-26T23:27:20.397Z,66.72
2019-04-26T23:30:06.844Z,66.34
2019-04-26T23:32:54.876Z,66.21
2019-04-26T23:35:45.696Z,66.25
2019-04-26T23:38:34.525Z,66.11
2019-04-26T23:41:21.070Z,66.78
2019-04-26T23:44:08.360Z,65.87
2019-04-26T23:47:01.160Z,66.68
2019-04-26T23:49:45.096Z,66.44
2019-04-26T23:52:33.278Z,66.43
2019-04-26T23:55:21.007Z,66.70
2019-04-26T23:58:10.782Z,66.40
